sensor_id;sensor_type;location;lat;lon;timestamp;P1;durP1;ratioP1;P2;durP2;ratioP2
27383;SDS011;14851;51.166;4.760;2023-03-14T00:03:35;4.72;;;1.33;;
27383;SDS011;14851;51.166;4.760;2023-03-14T00:06:04;6.82;;;1.20;;
27383;SDS011;14851;51.166;4.760;2023-03-14T00:08:31;5.55;;;1.10;;
27383;SDS011;14851;51.166;4.760;2023-03-14T00:10:57;6.00;;;1.25;;
27383;SDS011;14851;51.166;4.760;2023-03-14T00:13:25;7.20;;;1.58;;
27383;SDS011;14851;51.166;4.760;2023-03-14T00:15:51;5.50;;;1.10;;
27383;SDS011;14851;51.166;4.760;2023-03-14T00:18:17;6.50;;;1.23;;
27383;SDS011;14851;51.166;4.760;2023-03-14T00:20:45;6.78;;;1.10;;
27383;SDS011;14851;51.166;4.760;2023-03-14T00:23:11;4.15;;;1.48;;
27383;SDS011;14851;51.166;4.760;2023-03-14T00:25:37;4.28;;;1.13;;
27383;SDS011;14851;51.166;4.760;2023-03-14T00:28:03;4.45;;;1.15;;
27383;SDS011;14851;51.166;4.760;2023-03-14T00:30:29;4.85;;;1.08;;
27383;SDS011;14851;51.166;4.760;2023-03-14T00:32:55;6.32;;;1.20;;
27383;SDS011;14851;51.166;4.760;2023-03-14T00:35:21;4.65;;;1.25;;
27383;SDS011;14851;51.166;4.760;2023-03-14T00:37:47;6.20;;;0.95;;
27383;SDS011;14851;51.166;4.760;2023-03-14T00:40:13;5.90;;;1.02;;
27383;SDS011;14851;51.166;4.760;2023-03-14T00:42:42;7.30;;;1.30;;
27383;SDS011;14851;51.166;4.760;2023-03-14T00:45:08;5.00;;;0.98;;
27383;SDS011;14851;51.166;4.760;2023-03-14T00:47:35;5.22;;;1.00;;
27383;SDS011;14851;51.166;4.760;2023-03-14T00:50:01;6.18;;;1.00;;
27383;SDS011;14851;51.166;4.760;2023-03-14T00:52:27;7.15;;;1.45;;
27383;SDS011;14851;51.166;4.760;2023-03-14T00:54:53;6.70;;;1.30;;
27383;SDS011;14851;51.166;4.760;2023-03-14T00:57:23;4.72;;;1.73;;
27383;SDS011;14851;51.166;4.760;2023-03-14T00:59:50;7.75;;;1.35;;
27383;SDS011;14851;51.166;4.760;2023-03-14T01:02:16;7.35;;;1.40;;
27383;SDS011;14851;51.166;4.760;2023-03-14T01:04:48;7.10;;;1.52;;
27383;SDS011;14851;51.166;4.760;2023-03-14T01:07:15;9.15;;;1.58;;
27383;SDS011;14851;51.166;4.760;2023-03-14T01:09:41;8.90;;;1.52;;
27383;SDS011;14851;51.166;4.760;2023-03-14T01:12:07;6.80;;;1.48;;
27383;SDS011;14851;51.166;4.760;2023-03-14T01:14:33;7.90;;;1.48;;
27383;SDS011;14851;51.166;4.760;2023-03-14T01:17:00;7.97;;;1.42;;
27383;SDS011;14851;51.166;4.760;2023-03-14T01:19:27;10.80;;;1.73;;
27383;SDS011;14851;51.166;4.760;2023-03-14T01:21:55;10.05;;;1.50;;
27383;SDS011;14851;51.166;4.760;2023-03-14T01:24:23;9.50;;;2.08;;
27383;SDS011;14851;51.166;4.760;2023-03-14T01:26:48;9.98;;;1.98;;
27383;SDS011;14851;51.166;4.760;2023-03-14T01:29:14;7.70;;;1.63;;
27383;SDS011;14851;51.166;4.760;2023-03-14T01:31:40;10.63;;;1.98;;
27383;SDS011;14851;51.166;4.760;2023-03-14T01:34:06;9.25;;;1.83;;
27383;SDS011;14851;51.166;4.760;2023-03-14T01:36:34;5.63;;;1.42;;
27383;SDS011;14851;51.166;4.760;2023-03-14T01:39:00;10.13;;;1.60;;
27383;SDS011;14851;51.166;4.760;2023-03-14T01:41:28;11.63;;;2.35;;
27383;SDS011;14851;51.166;4.760;2023-03-14T01:43:56;6.72;;;1.63;;
27383;SDS011;14851;51.166;4.760;2023-03-14T01:51:44;8.27;;;2.13;;
27383;SDS011;14851;51.166;4.760;2023-03-14T01:57:10;10.90;;;1.75;;
27383;SDS011;14851;51.166;4.760;2023-03-14T01:59:42;10.80;;;1.92;;
27383;SDS011;14851;51.166;4.760;2023-03-14T02:02:13;11.20;;;2.10;;
27383;SDS011;14851;51.166;4.760;2023-03-14T02:04:41;5.35;;;1.40;;
27383;SDS011;14851;51.166;4.760;2023-03-14T02:07:11;8.63;;;1.70;;
27383;SDS011;14851;51.166;4.760;2023-03-14T02:09:53;6.75;;;1.90;;
27383;SDS011;14851;51.166;4.760;2023-03-14T02:12:28;7.00;;;1.60;;
27383;SDS011;14851;51.166;4.760;2023-03-14T02:15:13;9.50;;;1.95;;
27383;SDS011;14851;51.166;4.760;2023-03-14T02:18:02;9.93;;;1.92;;
27383;SDS011;14851;51.166;4.760;2023-03-14T02:23:34;5.10;;;1.42;;
27383;SDS011;14851;51.166;4.760;2023-03-14T02:26:27;9.05;;;2.25;;
27383;SDS011;14851;51.166;4.760;2023-03-14T02:29:20;10.32;;;1.80;;
27383;SDS011;14851;51.166;4.760;2023-03-14T02:31:46;7.55;;;1.70;;
27383;SDS011;14851;51.166;4.760;2023-03-14T02:34:15;7.45;;;1.65;;
27383;SDS011;14851;51.166;4.760;2023-03-14T02:36:42;9.75;;;1.77;;
27383;SDS011;14851;51.166;4.760;2023-03-14T02:39:10;7.53;;;1.40;;
27383;SDS011;14851;51.166;4.760;2023-03-14T02:41:44;6.55;;;1.63;;
27383;SDS011;14851;51.166;4.760;2023-03-14T02:44:13;5.35;;;1.48;;
27383;SDS011;14851;51.166;4.760;2023-03-14T02:46:39;6.97;;;1.65;;
27383;SDS011;14851;51.166;4.760;2023-03-14T02:49:08;6.28;;;1.50;;
27383;SDS011;14851;51.166;4.760;2023-03-14T02:51:37;7.20;;;2.05;;
27383;SDS011;14851;51.166;4.760;2023-03-14T02:54:05;8.80;;;1.83;;
27383;SDS011;14851;51.166;4.760;2023-03-14T02:56:31;6.30;;;1.23;;
27383;SDS011;14851;51.166;4.760;2023-03-14T02:58:57;7.55;;;1.55;;
27383;SDS011;14851;51.166;4.760;2023-03-14T03:01:32;7.85;;;1.33;;
27383;SDS011;14851;51.166;4.760;2023-03-14T03:04:02;3.80;;;1.08;;
27383;SDS011;14851;51.166;4.760;2023-03-14T03:06:29;5.85;;;1.10;;
27383;SDS011;14851;51.166;4.760;2023-03-14T03:08:55;3.30;;;0.85;;
27383;SDS011;14851;51.166;4.760;2023-03-14T03:11:23;5.05;;;1.00;;
27383;SDS011;14851;51.166;4.760;2023-03-14T03:13:50;4.50;;;0.80;;
27383;SDS011;14851;51.166;4.760;2023-03-14T03:16:17;4.72;;;1.10;;
27383;SDS011;14851;51.166;4.760;2023-03-14T03:18:43;2.97;;;0.90;;
27383;SDS011;14851;51.166;4.760;2023-03-14T03:21:09;3.75;;;1.10;;
27383;SDS011;14851;51.166;4.760;2023-03-14T03:23:37;4.38;;;1.02;;
27383;SDS011;14851;51.166;4.760;2023-03-14T03:26:04;3.97;;;1.10;;
27383;SDS011;14851;51.166;4.760;2023-03-14T03:28:31;3.35;;;1.00;;
27383;SDS011;14851;51.166;4.760;2023-03-14T03:30:58;5.93;;;0.90;;
27383;SDS011;14851;51.166;4.760;2023-03-14T03:33:24;2.80;;;0.73;;
27383;SDS011;14851;51.166;4.760;2023-03-14T03:35:50;2.58;;;0.88;;
27383;SDS011;14851;51.166;4.760;2023-03-14T03:38:32;4.03;;;1.13;;
27383;SDS011;14851;51.166;4.760;2023-03-14T03:41:02;3.22;;;0.75;;
27383;SDS011;14851;51.166;4.760;2023-03-14T03:43:30;4.25;;;1.00;;
27383;SDS011;14851;51.166;4.760;2023-03-14T03:45:57;5.88;;;1.10;;
27383;SDS011;14851;51.166;4.760;2023-03-14T03:48:23;5.30;;;1.13;;
27383;SDS011;14851;51.166;4.760;2023-03-14T03:50:49;4.10;;;1.13;;
27383;SDS011;14851;51.166;4.760;2023-03-14T03:53:19;2.97;;;0.90;;
27383;SDS011;14851;51.166;4.760;2023-03-14T03:55:47;4.63;;;0.90;;
27383;SDS011;14851;51.166;4.760;2023-03-14T03:58:16;5.07;;;1.17;;
27383;SDS011;14851;51.166;4.760;2023-03-14T04:00:42;3.97;;;1.10;;
27383;SDS011;14851;51.166;4.760;2023-03-14T04:03:10;4.97;;;1.23;;
27383;SDS011;14851;51.166;4.760;2023-03-14T04:05:36;4.45;;;1.42;;
27383;SDS011;14851;51.166;4.760;2023-03-14T04:10:36;4.50;;;1.40;;
27383;SDS011;14851;51.166;4.760;2023-03-14T04:13:06;6.35;;;1.35;;
27383;SDS011;14851;51.166;4.760;2023-03-14T04:15:34;4.80;;;1.23;;
27383;SDS011;14851;51.166;4.760;2023-03-14T04:18:06;6.85;;;1.50;;
27383;SDS011;14851;51.166;4.760;2023-03-14T04:20:33;5.18;;;1.27;;
27383;SDS011;14851;51.166;4.760;2023-03-14T04:23:01;7.90;;;1.45;;
27383;SDS011;14851;51.166;4.760;2023-03-14T04:25:27;4.90;;;1.30;;
27383;SDS011;14851;51.166;4.760;2023-03-14T04:27:56;6.20;;;1.23;;
27383;SDS011;14851;51.166;4.760;2023-03-14T04:30:25;5.25;;;1.30;;
27383;SDS011;14851;51.166;4.760;2023-03-14T04:32:57;5.15;;;1.60;;
27383;SDS011;14851;51.166;4.760;2023-03-14T04:35:24;5.35;;;1.50;;
27383;SDS011;14851;51.166;4.760;2023-03-14T04:40:22;3.95;;;1.45;;
27383;SDS011;14851;51.166;4.760;2023-03-14T04:42:54;6.25;;;2.25;;
27383;SDS011;14851;51.166;4.760;2023-03-14T04:45:21;6.53;;;1.85;;
27383;SDS011;14851;51.166;4.760;2023-03-14T04:47:48;6.57;;;1.92;;
27383;SDS011;14851;51.166;4.760;2023-03-14T04:50:17;5.75;;;1.98;;
27383;SDS011;14851;51.166;4.760;2023-03-14T04:52:46;7.40;;;2.27;;
27383;SDS011;14851;51.166;4.760;2023-03-14T04:55:12;6.57;;;2.22;;
27383;SDS011;14851;51.166;4.760;2023-03-14T04:57:38;7.57;;;2.75;;
27383;SDS011;14851;51.166;4.760;2023-03-14T05:00:07;4.53;;;2.25;;
27383;SDS011;14851;51.166;4.760;2023-03-14T05:02:49;6.60;;;2.38;;
27383;SDS011;14851;51.166;4.760;2023-03-14T05:05:41;10.32;;;2.40;;
27383;SDS011;14851;51.166;4.760;2023-03-14T05:08:16;7.88;;;2.50;;
27383;SDS011;14851;51.166;4.760;2023-03-14T05:11:02;7.40;;;3.00;;
27383;SDS011;14851;51.166;4.760;2023-03-14T05:13:54;5.22;;;2.47;;
27383;SDS011;14851;51.166;4.760;2023-03-14T05:16:43;7.63;;;3.20;;
27383;SDS011;14851;51.166;4.760;2023-03-14T05:19:09;7.03;;;3.10;;
27383;SDS011;14851;51.166;4.760;2023-03-14T05:21:44;8.45;;;3.33;;
27383;SDS011;14851;51.166;4.760;2023-03-14T05:24:27;8.15;;;2.90;;
27383;SDS011;14851;51.166;4.760;2023-03-14T05:27:22;8.38;;;2.92;;
27383;SDS011;14851;51.166;4.760;2023-03-14T05:29:59;8.00;;;2.50;;
27383;SDS011;14851;51.166;4.760;2023-03-14T05:32:53;5.50;;;2.30;;
27383;SDS011;14851;51.166;4.760;2023-03-14T05:35:48;6.13;;;2.20;;
27383;SDS011;14851;51.166;4.760;2023-03-14T05:38:14;4.35;;;2.17;;
27383;SDS011;14851;51.166;4.760;2023-03-14T05:41:03;4.65;;;1.83;;
27383;SDS011;14851;51.166;4.760;2023-03-14T05:43:35;7.78;;;2.45;;
27383;SDS011;14851;51.166;4.760;2023-03-14T05:46:29;2.72;;;1.67;;
27383;SDS011;14851;51.166;4.760;2023-03-14T05:49:18;7.53;;;2.20;;
27383;SDS011;14851;51.166;4.760;2023-03-14T05:55:02;3.55;;;2.17;;
27383;SDS011;14851;51.166;4.760;2023-03-14T05:57:37;5.75;;;2.20;;
27383;SDS011;14851;51.166;4.760;2023-03-14T06:00:32;4.55;;;1.90;;
27383;SDS011;14851;51.166;4.760;2023-03-14T06:03:21;4.32;;;2.15;;
27383;SDS011;14851;51.166;4.760;2023-03-14T06:05:51;4.60;;;2.22;;
27383;SDS011;14851;51.166;4.760;2023-03-14T06:08:21;7.00;;;2.22;;
27383;SDS011;14851;51.166;4.760;2023-03-14T06:11:05;4.53;;;2.47;;
27383;SDS011;14851;51.166;4.760;2023-03-14T06:13:31;3.45;;;2.10;;
27383;SDS011;14851;51.166;4.760;2023-03-14T06:15:57;5.40;;;1.90;;
27383;SDS011;14851;51.166;4.760;2023-03-14T06:18:26;5.00;;;2.50;;
27383;SDS011;14851;51.166;4.760;2023-03-14T06:20:54;2.50;;;1.73;;
27383;SDS011;14851;51.166;4.760;2023-03-14T06:23:24;6.35;;;2.15;;
27383;SDS011;14851;51.166;4.760;2023-03-14T06:25:51;4.32;;;2.00;;
27383;SDS011;14851;51.166;4.760;2023-03-14T06:28:19;4.00;;;2.30;;
27383;SDS011;14851;51.166;4.760;2023-03-14T06:30:47;4.60;;;2.97;;
27383;SDS011;14851;51.166;4.760;2023-03-14T06:33:14;3.33;;;2.20;;
27383;SDS011;14851;51.166;4.760;2023-03-14T06:35:42;3.60;;;1.95;;
27383;SDS011;14851;51.166;4.760;2023-03-14T06:38:08;6.38;;;3.63;;
27383;SDS011;14851;51.166;4.760;2023-03-14T06:40:34;3.55;;;2.20;;
27383;SDS011;14851;51.166;4.760;2023-03-14T06:43:08;2.80;;;2.20;;
27383;SDS011;14851;51.166;4.760;2023-03-14T06:45:41;4.03;;;2.40;;
27383;SDS011;14851;51.166;4.760;2023-03-14T06:50:38;4.45;;;2.17;;
27383;SDS011;14851;51.166;4.760;2023-03-14T06:53:04;3.88;;;2.15;;
27383;SDS011;14851;51.166;4.760;2023-03-14T06:55:34;4.25;;;2.17;;
27383;SDS011;14851;51.166;4.760;2023-03-14T06:58:00;12.82;;;2.53;;
27383;SDS011;14851;51.166;4.760;2023-03-14T07:00:26;6.57;;;1.20;;
27383;SDS011;14851;51.166;4.760;2023-03-14T07:02:54;4.03;;;0.90;;
27383;SDS011;14851;51.166;4.760;2023-03-14T07:05:26;2.20;;;0.70;;
27383;SDS011;14851;51.166;4.760;2023-03-14T07:07:56;4.03;;;0.60;;
27383;SDS011;14851;51.166;4.760;2023-03-14T07:10:23;2.38;;;0.70;;
27383;SDS011;14851;51.166;4.760;2023-03-14T07:12:49;4.20;;;0.77;;
27383;SDS011;14851;51.166;4.760;2023-03-14T07:15:15;3.42;;;1.00;;
27383;SDS011;14851;51.166;4.760;2023-03-14T07:17:49;4.10;;;0.95;;
27383;SDS011;14851;51.166;4.760;2023-03-14T07:20:20;2.25;;;1.00;;
27383;SDS011;14851;51.166;4.760;2023-03-14T07:22:49;3.60;;;1.02;;
27383;SDS011;14851;51.166;4.760;2023-03-14T07:25:18;3.95;;;1.25;;
27383;SDS011;14851;51.166;4.760;2023-03-14T07:27:45;5.22;;;1.00;;
27383;SDS011;14851;51.166;4.760;2023-03-14T07:30:13;2.97;;;0.80;;
27383;SDS011;14851;51.166;4.760;2023-03-14T07:32:39;3.65;;;0.70;;
27383;SDS011;14851;51.166;4.760;2023-03-14T07:35:08;4.70;;;1.02;;
27383;SDS011;14851;51.166;4.760;2023-03-14T07:37:37;4.87;;;1.10;;
27383;SDS011;14851;51.166;4.760;2023-03-14T07:40:03;5.72;;;1.35;;
27383;SDS011;14851;51.166;4.760;2023-03-14T07:42:32;6.50;;;1.65;;
27383;SDS011;14851;51.166;4.760;2023-03-14T07:45:18;3.50;;;1.60;;
27383;SDS011;14851;51.166;4.760;2023-03-14T07:47:44;3.20;;;1.65;;
27383;SDS011;14851;51.166;4.760;2023-03-14T07:50:10;4.68;;;1.92;;
27383;SDS011;14851;51.166;4.760;2023-03-14T07:52:36;4.00;;;1.80;;
27383;SDS011;14851;51.166;4.760;2023-03-14T07:55:04;2.08;;;0.98;;
27383;SDS011;14851;51.166;4.760;2023-03-14T07:57:31;3.80;;;0.90;;
27383;SDS011;14851;51.166;4.760;2023-03-14T07:59:57;4.25;;;1.00;;
27383;SDS011;14851;51.166;4.760;2023-03-14T08:02:22;3.60;;;1.20;;
27383;SDS011;14851;51.166;4.760;2023-03-14T08:04:49;5.63;;;0.95;;
27383;SDS011;14851;51.166;4.760;2023-03-14T08:07:15;5.82;;;0.70;;
27383;SDS011;14851;51.166;4.760;2023-03-14T08:09:43;7.47;;;1.17;;
27383;SDS011;14851;51.166;4.760;2023-03-14T08:12:09;4.80;;;1.05;;
27383;SDS011;14851;51.166;4.760;2023-03-14T08:14:35;4.38;;;0.88;;
27383;SDS011;14851;51.166;4.760;2023-03-14T08:17:03;4.40;;;1.15;;
27383;SDS011;14851;51.166;4.760;2023-03-14T08:19:30;2.60;;;0.73;;
27383;SDS011;14851;51.166;4.760;2023-03-14T08:21:56;5.95;;;0.80;;
27383;SDS011;14851;51.166;4.760;2023-03-14T08:24:26;3.55;;;1.00;;
27383;SDS011;14851;51.166;4.760;2023-03-14T08:26:52;4.28;;;0.82;;
27383;SDS011;14851;51.166;4.760;2023-03-14T08:29:18;11.07;;;1.60;;
27383;SDS011;14851;51.166;4.760;2023-03-14T08:31:44;4.72;;;1.02;;
27383;SDS011;14851;51.166;4.760;2023-03-14T08:34:10;4.93;;;0.82;;
27383;SDS011;14851;51.166;4.760;2023-03-14T08:36:38;3.10;;;0.88;;
27383;SDS011;14851;51.166;4.760;2023-03-14T08:39:04;5.70;;;0.70;;
27383;SDS011;14851;51.166;4.760;2023-03-14T08:41:32;6.32;;;1.77;;
27383;SDS011;14851;51.166;4.760;2023-03-14T08:43:58;5.20;;;0.90;;
27383;SDS011;14851;51.166;4.760;2023-03-14T08:46:29;6.20;;;1.70;;
27383;SDS011;14851;51.166;4.760;2023-03-14T08:48:55;6.75;;;1.25;;
27383;SDS011;14851;51.166;4.760;2023-03-14T08:51:21;4.47;;;1.08;;
27383;SDS011;14851;51.166;4.760;2023-03-14T08:53:46;5.90;;;1.10;;
27383;SDS011;14851;51.166;4.760;2023-03-14T08:56:12;5.55;;;1.10;;
27383;SDS011;14851;51.166;4.760;2023-03-14T08:58:38;4.35;;;0.80;;
27383;SDS011;14851;51.166;4.760;2023-03-14T09:01:05;5.28;;;1.00;;
27383;SDS011;14851;51.166;4.760;2023-03-14T09:03:31;4.93;;;1.08;;
27383;SDS011;14851;51.166;4.760;2023-03-14T09:06:00;1.60;;;0.60;;
27383;SDS011;14851;51.166;4.760;2023-03-14T09:08:28;2.50;;;0.75;;
27383;SDS011;14851;51.166;4.760;2023-03-14T09:10:54;1.90;;;0.60;;
27383;SDS011;14851;51.166;4.760;2023-03-14T09:13:20;4.00;;;1.00;;
27383;SDS011;14851;51.166;4.760;2023-03-14T09:15:50;1.55;;;0.70;;
27383;SDS011;14851;51.166;4.760;2023-03-14T09:18:21;1.25;;;0.77;;
27383;SDS011;14851;51.166;4.760;2023-03-14T09:20:47;3.53;;;1.13;;
27383;SDS011;14851;51.166;4.760;2023-03-14T09:23:14;3.30;;;1.02;;
27383;SDS011;14851;51.166;4.760;2023-03-14T09:25:40;4.28;;;0.85;;
27383;SDS011;14851;51.166;4.760;2023-03-14T09:28:06;2.05;;;0.50;;
27383;SDS011;14851;51.166;4.760;2023-03-14T09:30:32;3.95;;;0.88;;
27383;SDS011;14851;51.166;4.760;2023-03-14T09:32:58;3.10;;;0.60;;
27383;SDS011;14851;51.166;4.760;2023-03-14T09:35:24;3.17;;;0.93;;
27383;SDS011;14851;51.166;4.760;2023-03-14T09:37:52;5.72;;;1.10;;
27383;SDS011;14851;51.166;4.760;2023-03-14T09:40:18;4.85;;;0.73;;
27383;SDS011;14851;51.166;4.760;2023-03-14T09:42:50;5.63;;;1.02;;
27383;SDS011;14851;51.166;4.760;2023-03-14T09:45:27;3.42;;;0.90;;
27383;SDS011;14851;51.166;4.760;2023-03-14T09:47:54;5.80;;;0.80;;
27383;SDS011;14851;51.166;4.760;2023-03-14T09:50:22;3.92;;;1.02;;
27383;SDS011;14851;51.166;4.760;2023-03-14T09:52:51;3.08;;;0.82;;
27383;SDS011;14851;51.166;4.760;2023-03-14T09:55:25;4.53;;;0.65;;
27383;SDS011;14851;51.166;4.760;2023-03-14T09:57:54;3.88;;;0.82;;
27383;SDS011;14851;51.166;4.760;2023-03-14T10:00:27;1.27;;;0.52;;
27383;SDS011;14851;51.166;4.760;2023-03-14T10:02:56;3.78;;;0.80;;
27383;SDS011;14851;51.166;4.760;2023-03-14T10:05:47;6.63;;;1.00;;
27383;SDS011;14851;51.166;4.760;2023-03-14T10:08:13;7.88;;;1.10;;
27383;SDS011;14851;51.166;4.760;2023-03-14T10:10:39;8.50;;;1.52;;
27383;SDS011;14851;51.166;4.760;2023-03-14T10:15:38;6.05;;;1.52;;
27383;SDS011;14851;51.166;4.760;2023-03-14T10:18:09;10.27;;;1.33;;
27383;SDS011;14851;51.166;4.760;2023-03-14T10:20:40;6.80;;;1.27;;
27383;SDS011;14851;51.166;4.760;2023-03-14T10:25:43;5.82;;;1.30;;
27383;SDS011;14851;51.166;4.760;2023-03-14T10:28:25;6.53;;;1.65;;
27383;SDS011;14851;51.166;4.760;2023-03-14T10:30:51;8.80;;;2.05;;
27383;SDS011;14851;51.166;4.760;2023-03-14T10:35:46;7.35;;;2.00;;
27383;SDS011;14851;51.166;4.760;2023-03-14T10:38:18;5.07;;;1.73;;
27383;SDS011;14851;51.166;4.760;2023-03-14T10:40:48;4.50;;;1.50;;
27383;SDS011;14851;51.166;4.760;2023-03-14T10:43:24;6.07;;;3.00;;
27383;SDS011;14851;51.166;4.760;2023-03-14T10:45:57;4.63;;;1.60;;
27383;SDS011;14851;51.166;4.760;2023-03-14T10:48:32;2.75;;;1.27;;
27383;SDS011;14851;51.166;4.760;2023-03-14T10:51:07;3.95;;;0.85;;
27383;SDS011;14851;51.166;4.760;2023-03-14T10:53:45;4.95;;;2.28;;
27383;SDS011;14851;51.166;4.760;2023-03-14T10:56:24;4.13;;;0.80;;
27383;SDS011;14851;51.166;4.760;2023-03-14T10:58:56;5.82;;;1.60;;
27383;SDS011;14851;51.166;4.760;2023-03-14T11:01:28;4.50;;;1.40;;
27383;SDS011;14851;51.166;4.760;2023-03-14T11:15:02;7.22;;;1.05;;
27383;SDS011;14851;51.166;4.760;2023-03-14T11:17:41;6.63;;;1.30;;
27383;SDS011;14851;51.166;4.760;2023-03-14T11:23:08;6.50;;;1.45;;
27383;SDS011;14851;51.166;4.760;2023-03-14T11:33:25;6.22;;;1.38;;
27383;SDS011;14851;51.166;4.760;2023-03-14T11:36:07;8.65;;;1.83;;
27383;SDS011;14851;51.166;4.760;2023-03-14T11:38:43;12.50;;;2.60;;
27383;SDS011;14851;51.166;4.760;2023-03-14T11:41:22;5.75;;;1.25;;
27383;SDS011;14851;51.166;4.760;2023-03-14T11:44:01;10.20;;;2.72;;
27383;SDS011;14851;51.166;4.760;2023-03-14T11:46:35;6.95;;;1.60;;
27383;SDS011;14851;51.166;4.760;2023-03-14T11:51:50;9.15;;;1.70;;
27383;SDS011;14851;51.166;4.760;2023-03-14T11:56:58;8.70;;;1.63;;
27383;SDS011;14851;51.166;4.760;2023-03-14T11:59:55;12.00;;;1.60;;
27383;SDS011;14851;51.166;4.760;2023-03-14T12:10:30;11.80;;;2.90;;
27383;SDS011;14851;51.166;4.760;2023-03-14T12:13:14;12.23;;;2.30;;
27383;SDS011;14851;51.166;4.760;2023-03-14T12:15:48;13.90;;;2.22;;
27383;SDS011;14851;51.166;4.760;2023-03-14T12:18:28;15.60;;;2.95;;
27383;SDS011;14851;51.166;4.760;2023-03-14T12:21:08;16.38;;;2.50;;
27383;SDS011;14851;51.166;4.760;2023-03-14T12:23:37;11.98;;;2.35;;
27383;SDS011;14851;51.166;4.760;2023-03-14T12:26:21;19.02;;;3.13;;
27383;SDS011;14851;51.166;4.760;2023-03-14T12:31:44;21.20;;;3.85;;
27383;SDS011;14851;51.166;4.760;2023-03-14T12:42:10;15.90;;;2.90;;
27383;SDS011;14851;51.166;4.760;2023-03-14T12:44:51;15.75;;;2.58;;
27383;SDS011;14851;51.166;4.760;2023-03-14T12:49:46;14.70;;;3.45;;
27383;SDS011;14851;51.166;4.760;2023-03-14T12:52:21;17.67;;;3.30;;
27383;SDS011;14851;51.166;4.760;2023-03-14T12:57:45;20.88;;;2.97;;
27383;SDS011;14851;51.166;4.760;2023-03-14T13:00:30;19.45;;;3.78;;
27383;SDS011;14851;51.166;4.760;2023-03-14T13:03:02;21.45;;;3.25;;
27383;SDS011;14851;51.166;4.760;2023-03-14T13:06:00;16.90;;;3.65;;
27383;SDS011;14851;51.166;4.760;2023-03-14T13:08:46;20.52;;;4.00;;
27383;SDS011;14851;51.166;4.760;2023-03-14T13:11:19;21.08;;;3.25;;
27383;SDS011;14851;51.166;4.760;2023-03-14T13:13:47;20.52;;;3.50;;
27383;SDS011;14851;51.166;4.760;2023-03-14T13:16:17;22.05;;;3.97;;
27383;SDS011;14851;51.166;4.760;2023-03-14T13:18:45;22.08;;;3.33;;
27383;SDS011;14851;51.166;4.760;2023-03-14T13:21:21;18.67;;;4.15;;
27383;SDS011;14851;51.166;4.760;2023-03-14T13:23:54;15.82;;;3.53;;
27383;SDS011;14851;51.166;4.760;2023-03-14T13:26:26;21.50;;;3.40;;
27383;SDS011;14851;51.166;4.760;2023-03-14T13:29:19;23.58;;;3.22;;
27383;SDS011;14851;51.166;4.760;2023-03-14T13:31:53;17.15;;;3.50;;
27383;SDS011;14851;51.166;4.760;2023-03-14T13:34:25;15.73;;;2.63;;
27383;SDS011;14851;51.166;4.760;2023-03-14T13:36:53;12.38;;;2.42;;
27383;SDS011;14851;51.166;4.760;2023-03-14T13:39:20;10.50;;;2.33;;
27383;SDS011;14851;51.166;4.760;2023-03-14T13:41:55;10.35;;;2.33;;
27383;SDS011;14851;51.166;4.760;2023-03-14T13:46:58;12.38;;;2.13;;
27383;SDS011;14851;51.166;4.760;2023-03-14T13:49:26;16.35;;;2.53;;
27383;SDS011;14851;51.166;4.760;2023-03-14T13:51:56;12.25;;;2.08;;
27383;SDS011;14851;51.166;4.760;2023-03-14T13:54:22;10.15;;;1.80;;
27383;SDS011;14851;51.166;4.760;2023-03-14T13:56:58;10.18;;;1.98;;
27383;SDS011;14851;51.166;4.760;2023-03-14T13:59:34;9.07;;;2.35;;
27383;SDS011;14851;51.166;4.760;2023-03-14T14:02:01;8.10;;;1.90;;
27383;SDS011;14851;51.166;4.760;2023-03-14T14:04:35;8.90;;;2.35;;
27383;SDS011;14851;51.166;4.760;2023-03-14T14:07:06;8.20;;;1.50;;
27383;SDS011;14851;51.166;4.760;2023-03-14T14:09:41;8.25;;;1.67;;
27383;SDS011;14851;51.166;4.760;2023-03-14T14:12:16;9.63;;;2.58;;
27383;SDS011;14851;51.166;4.760;2023-03-14T14:18:01;8.82;;;1.73;;
27383;SDS011;14851;51.166;4.760;2023-03-14T14:23:00;7.97;;;1.85;;
27383;SDS011;14851;51.166;4.760;2023-03-14T14:25:34;10.38;;;2.30;;
27383;SDS011;14851;51.166;4.760;2023-03-14T14:28:13;10.93;;;2.75;;
27383;SDS011;14851;51.166;4.760;2023-03-14T14:31:03;8.52;;;2.05;;
27383;SDS011;14851;51.166;4.760;2023-03-14T14:38:59;4.45;;;1.20;;
27383;SDS011;14851;51.166;4.760;2023-03-14T14:41:32;5.63;;;1.20;;
27383;SDS011;14851;51.166;4.760;2023-03-14T14:44:00;5.28;;;1.23;;
27383;SDS011;14851;51.166;4.760;2023-03-14T14:46:29;8.82;;;1.70;;
27383;SDS011;14851;51.166;4.760;2023-03-14T14:49:05;7.63;;;1.52;;
27383;SDS011;14851;51.166;4.760;2023-03-14T14:51:40;6.18;;;1.23;;
27383;SDS011;14851;51.166;4.760;2023-03-14T14:54:12;4.28;;;1.10;;
27383;SDS011;14851;51.166;4.760;2023-03-14T14:57:01;5.32;;;0.88;;
27383;SDS011;14851;51.166;4.760;2023-03-14T14:59:29;2.95;;;0.82;;
27383;SDS011;14851;51.166;4.760;2023-03-14T15:01:59;5.53;;;1.50;;
27383;SDS011;14851;51.166;4.760;2023-03-14T15:04:26;5.15;;;1.13;;
27383;SDS011;14851;51.166;4.760;2023-03-14T15:06:55;8.23;;;1.55;;
27383;SDS011;14851;51.166;4.760;2023-03-14T15:09:21;9.00;;;1.48;;
27383;SDS011;14851;51.166;4.760;2023-03-14T15:11:48;5.35;;;1.55;;
27383;SDS011;14851;51.166;4.760;2023-03-14T15:14:15;5.32;;;1.33;;
27383;SDS011;14851;51.166;4.760;2023-03-14T15:16:40;5.80;;;1.08;;
27383;SDS011;14851;51.166;4.760;2023-03-14T15:19:10;5.03;;;1.23;;
27383;SDS011;14851;51.166;4.760;2023-03-14T15:21:42;7.22;;;1.88;;
27383;SDS011;14851;51.166;4.760;2023-03-14T15:24:08;10.13;;;1.85;;
27383;SDS011;14851;51.166;4.760;2023-03-14T15:26:35;13.50;;;2.90;;
27383;SDS011;14851;51.166;4.760;2023-03-14T15:29:00;7.88;;;2.05;;
27383;SDS011;14851;51.166;4.760;2023-03-14T15:31:29;9.45;;;1.65;;
27383;SDS011;14851;51.166;4.760;2023-03-14T15:33:55;10.18;;;2.03;;
27383;SDS011;14851;51.166;4.760;2023-03-14T15:36:28;8.27;;;1.60;;
27383;SDS011;14851;51.166;4.760;2023-03-14T15:38:56;8.82;;;1.70;;
27383;SDS011;14851;51.166;4.760;2023-03-14T15:41:24;8.18;;;1.70;;
27383;SDS011;14851;51.166;4.760;2023-03-14T15:43:51;24.05;;;9.20;;
27383;SDS011;14851;51.166;4.760;2023-03-14T15:46:17;13.00;;;3.97;;
27383;SDS011;14851;51.166;4.760;2023-03-14T15:48:46;18.58;;;6.57;;
27383;SDS011;14851;51.166;4.760;2023-03-14T15:51:12;7.72;;;1.38;;
27383;SDS011;14851;51.166;4.760;2023-03-14T15:53:38;8.25;;;1.65;;
27383;SDS011;14851;51.166;4.760;2023-03-14T15:56:05;10.23;;;1.88;;
27383;SDS011;14851;51.166;4.760;2023-03-14T15:58:32;6.78;;;1.63;;
27383;SDS011;14851;51.166;4.760;2023-03-14T16:01:03;9.38;;;2.00;;
27383;SDS011;14851;51.166;4.760;2023-03-14T16:03:29;8.48;;;1.75;;
27383;SDS011;14851;51.166;4.760;2023-03-14T16:05:55;9.93;;;2.25;;
27383;SDS011;14851;51.166;4.760;2023-03-14T16:08:22;15.93;;;2.35;;
27383;SDS011;14851;51.166;4.760;2023-03-14T16:10:53;12.63;;;1.80;;
27383;SDS011;14851;51.166;4.760;2023-03-14T16:13:20;7.97;;;1.75;;
27383;SDS011;14851;51.166;4.760;2023-03-14T16:15:52;12.25;;;2.72;;
27383;SDS011;14851;51.166;4.760;2023-03-14T16:18:23;9.18;;;2.20;;
27383;SDS011;14851;51.166;4.760;2023-03-14T16:20:53;8.20;;;1.90;;
27383;SDS011;14851;51.166;4.760;2023-03-14T16:23:20;9.32;;;1.77;;
27383;SDS011;14851;51.166;4.760;2023-03-14T16:25:46;11.45;;;2.55;;
27383;SDS011;14851;51.166;4.760;2023-03-14T16:28:12;10.50;;;3.05;;
27383;SDS011;14851;51.166;4.760;2023-03-14T16:30:38;9.85;;;1.50;;
27383;SDS011;14851;51.166;4.760;2023-03-14T16:33:07;7.93;;;1.92;;
27383;SDS011;14851;51.166;4.760;2023-03-14T16:35:35;10.93;;;2.63;;
27383;SDS011;14851;51.166;4.760;2023-03-14T16:38:01;13.77;;;2.55;;
27383;SDS011;14851;51.166;4.760;2023-03-14T16:40:27;10.65;;;2.55;;
27383;SDS011;14851;51.166;4.760;2023-03-14T16:42:53;12.10;;;2.88;;